Time;durP1;ratioP1;P1;durP2;ratioP2;P2;SDS_P1;SDS_P2;PMS_P1;PMS_P2;Temp;Humidity;BMP_temperature;BMP_pressure;BME280_temperature;BME280_humidity;BME280_pressure;Samples;Min_cycle;Max_cycle;Signal;HPM_P1;HPM_P2
2022/02/27 00:00:11;;;;;;;20.15;7.72;;;-1.40;99.90;;;-3.16;100.00;103516.50;4924182;28;20148;-76
2022/02/27 00:02:37;;;;;;;22.52;6.50;;;-1.40;99.90;;;-3.23;100.00;103501.50;4930626;28;20753;-75
2022/02/27 00:05:03;;;;;;;23.48;7.47;;;-1.50;99.90;;;-3.27;100.00;103504.72;4931562;28;20047;-76
2022/02/27 00:07:29;;;;;;;15.77;5.70;;;-1.50;99.90;;;-3.32;100.00;103509.63;4932083;28;20171;-75
2022/02/27 00:09:55;;;;;;;18.05;5.18;;;-1.60;99.90;;;-3.35;100.00;103512.00;4930388;28;20039;-75
2022/02/27 00:12:21;;;;;;;13.05;4.10;;;-1.60;99.90;;;-3.40;100.00;103508.31;4930886;28;20114;-76
2022/02/27 00:14:47;;;;;;;11.13;4.20;;;-1.60;99.90;;;-3.46;100.00;103513.13;4930912;28;20034;-76
2022/02/27 00:17:13;;;;;;;11.52;4.60;;;-1.70;99.90;;;-3.51;100.00;103521.47;4927062;28;20039;-75
2022/02/27 00:19:38;;;;;;;23.25;5.55;;;-1.70;99.90;;;-3.54;100.00;103520.44;4930916;28;20106;-75
2022/02/27 00:22:04;;;;;;;14.32;4.05;;;-1.80;99.90;;;-3.55;100.00;103514.38;4896204;28;20444;-74
2022/02/27 00:24:30;;;;;;;16.70;4.45;;;-1.80;99.90;;;-3.54;100.00;103513.59;4911455;28;20023;-75
2022/02/27 00:26:57;;;;;;;8.70;4.10;;;-1.70;99.90;;;-3.50;100.00;103506.91;4927790;28;20035;-75
2022/02/27 00:29:22;;;;;;;10.45;4.10;;;-1.70;99.90;;;-3.47;100.00;103512.25;4904416;28;20721;-73
2022/02/27 00:31:48;;;;;;;19.17;5.80;;;-1.70;99.90;;;-3.43;100.00;103508.16;4912792;28;20038;-74
2022/02/27 00:34:14;;;;;;;17.50;5.25;;;-1.70;99.90;;;-3.42;100.00;103515.06;4932519;28;20027;-74
2022/02/27 00:36:40;;;;;;;20.30;5.60;;;-1.70;99.90;;;-3.44;100.00;103507.25;4937674;28;22309;-74
2022/02/27 00:39:06;;;;;;;20.70;5.53;;;-1.70;99.90;;;-3.43;100.00;103510.72;4920549;28;20031;-73
2022/02/27 00:41:32;;;;;;;22.67;5.55;;;-1.70;99.90;;;-3.41;100.00;103511.66;4947117;28;20565;-75
2022/02/27 00:43:59;;;;;;;15.90;4.22;;;-1.70;99.90;;;-3.43;100.00;103518.47;4934580;28;20047;-75
2022/02/27 00:46:25;;;;;;;13.18;4.70;;;-1.70;99.90;;;-3.46;100.00;103510.53;4933930;28;20165;-74
2022/02/27 00:48:51;;;;;;;18.35;4.75;;;-1.70;99.90;;;-3.48;100.00;103510.44;4935150;28;20109;-74
2022/02/27 00:51:17;;;;;;;14.30;5.15;;;-1.70;99.90;;;-3.52;100.00;103516.22;4935549;28;24294;-74
2022/02/27 00:53:43;;;;;;;15.82;5.88;;;-1.70;99.90;;;-3.51;100.00;103508.59;4917754;28;20019;-75
2022/02/27 00:56:09;;;;;;;22.65;7.53;;;-1.70;99.90;;;-3.40;100.00;103511.75;4933401;28;20424;-73
2022/02/27 00:58:35;;;;;;;25.08;6.43;;;-1.60;99.90;;;-3.32;100.00;103500.19;4933962;28;20039;-74
2022/02/27 01:01:01;;;;;;;20.30;6.72;;;-1.60;99.90;;;-3.26;100.00;103502.25;4933615;28;20028;-74
2022/02/27 01:03:27;;;;;;;30.17;7.10;;;-1.50;99.90;;;-3.21;100.00;103499.91;4935827;28;20488;-74
2022/02/27 01:05:53;;;;;;;22.85;6.53;;;-1.50;99.90;;;-3.19;100.00;103496.59;4933343;28;20031;-75
2022/02/27 01:08:19;;;;;;;30.58;6.68;;;-1.50;99.90;;;-3.17;100.00;103482.13;4937155;28;20114;-74
2022/02/27 01:10:45;;;;;;;16.95;5.43;;;-1.40;99.90;;;-3.15;100.00;103485.66;4917277;28;20114;-74
2022/02/27 01:13:10;;;;;;;23.60;5.25;;;-1.40;99.90;;;-3.11;100.00;103492.75;4934526;28;20180;-74
2022/02/27 01:15:36;;;;;;;16.23;5.38;;;-1.30;99.90;;;-3.04;100.00;103491.41;4934945;28;20038;-74
2022/02/27 01:18:02;;;;;;;21.45;6.15;;;-1.30;99.90;;;-2.97;100.00;103490.03;4933469;28;20122;-74
2022/02/27 01:20:28;;;;;;;17.88;6.60;;;-1.20;99.90;;;-2.93;100.00;103497.13;4932988;28;20051;-73
2022/02/27 01:22:54;;;;;;;22.38;5.72;;;-1.20;99.90;;;-2.92;100.00;103496.31;4934370;28;20023;-74
2022/02/27 01:25:20;;;;;;;15.30;5.90;;;-1.20;99.90;;;-2.93;100.00;103498.00;4933545;28;20031;-74
2022/02/27 01:27:45;;;;;;;20.20;5.72;;;-1.40;99.90;;;-2.95;100.00;103506.47;4917119;28;20769;-73
2022/02/27 01:30:11;;;;;;;22.52;5.32;;;-1.20;99.90;;;-2.99;100.00;103502.84;4933474;28;20039;-75
2022/02/27 01:32:37;;;;;;;16.15;5.13;;;-1.30;99.90;;;-3.02;100.00;103501.75;4936427;28;20027;-73
2022/02/27 01:35:09;;;;;;;18.83;5.38;;;-1.30;99.90;;;-3.09;100.00;103508.28;4922723;28;20141;-74
2022/02/27 01:37:36;;;;;;;17.52;5.88;;;-1.40;99.90;;;-3.17;100.00;103505.31;4923966;28;20015;-74
2022/02/27 01:40:03;;;;;;;19.70;5.63;;;-1.40;99.90;;;-3.19;100.00;103509.50;4934603;28;20620;-75
2022/02/27 01:42:29;;;;;;;16.83;5.43;;;-1.50;99.90;;;-3.24;100.00;103508.38;4933862;28;20555;-73
2022/02/27 01:44:55;;;;;;;19.05;5.15;;;-1.50;99.90;;;-3.27;100.00;103503.03;4933899;28;20024;-73
2022/02/27 01:47:22;;;;;;;22.27;5.07;;;-1.50;99.90;;;-3.31;100.00;103503.66;4932884;28;20042;-73
2022/02/27 01:49:51;;;;;;;24.98;5.22;;;-1.60;99.90;;;-3.37;100.00;103511.03;4935242;28;20124;-74
2022/02/27 01:52:17;;;;;;;23.52;5.80;;;-1.60;99.90;;;-3.38;100.00;103515.31;4932418;28;20023;-73
2022/02/27 01:54:43;;;;;;;17.67;5.05;;;-1.60;99.90;;;-3.39;100.00;103505.81;4946535;28;20043;-73
2022/02/27 01:57:15;;;;;;;13.25;4.97;;;-1.60;99.90;;;-3.40;100.00;103505.72;4937914;28;20059;-73
2022/02/27 01:59:42;;;;;;;21.73;5.75;;;-1.70;99.90;;;-3.43;100.00;103508.16;4916695;28;20065;-72
2022/02/27 02:02:09;;;;;;;19.40;4.82;;;-1.70;99.90;;;-3.45;100.00;103499.44;4931828;28;20042;-73
2022/02/27 02:04:35;;;;;;;23.42;6.03;;;-1.70;99.90;;;-3.44;100.00;103502.09;4933467;28;20039;-74
2022/02/27 02:07:03;;;;;;;23.50;5.65;;;-1.70;99.90;;;-3.39;100.00;103504.91;4937424;28;20063;-73
2022/02/27 02:09:29;;;;;;;21.13;4.45;;;-1.60;99.90;;;-3.42;100.00;103497.91;4934234;28;20069;-73
2022/02/27 02:11:54;;;;;;;28.35;9.27;;;-1.60;99.90;;;-3.40;100.00;103492.84;4933438;28;20100;-73
2022/02/27 02:14:20;;;;;;;26.88;7.60;;;-1.60;99.90;;;-3.40;100.00;103490.28;4932576;28;20039;-73
2022/02/27 02:16:51;;;;;;;15.05;5.15;;;-1.60;99.90;;;-3.41;100.00;103491.97;4915858;28;20116;-73
2022/02/27 02:19:23;;;;;;;16.35;4.68;;;-1.70;99.90;;;-3.48;100.00;103479.53;4928777;28;20468;-74
2022/02/27 02:21:53;;;;;;;14.82;4.75;;;-1.70;99.90;;;-3.49;100.00;103479.47;4912647;28;20489;-73
2022/02/27 02:24:21;;;;;;;19.40;5.47;;;-1.70;99.90;;;-3.48;100.00;103478.66;4915257;28;20044;-74
2022/02/27 02:26:48;;;;;;;16.83;4.47;;;-1.70;99.90;;;-3.48;100.00;103468.34;4907969;28;20044;-73
2022/02/27 02:29:18;;;;;;;56.10;17.63;;;-1.70;99.90;;;-3.51;100.00;103467.38;4924191;29;20405;-73
2022/02/27 02:31:49;;;;;;;46.85;13.60;;;-1.70;99.90;;;-3.47;100.00;103467.56;4902521;28;20472;-73
2022/02/27 02:34:18;;;;;;;25.25;7.70;;;-1.70;99.90;;;-3.44;100.00;103471.19;4895907;28;20515;-73
2022/02/27 02:36:46;;;;;;;22.73;5.43;;;-1.70;99.90;;;-3.45;100.00;103474.56;4913893;28;20106;-73
2022/02/27 02:39:16;;;;;;;21.27;5.00;;;-1.70;99.90;;;-3.43;100.00;103472.09;4915924;28;20036;-73
2022/02/27 02:41:42;;;;;;;17.35;4.85;;;-1.70;99.90;;;-3.43;100.00;103470.38;4921163;29;20035;-73
2022/02/27 02:44:11;;;;;;;20.15;5.00;;;-1.70;99.90;;;-3.41;100.00;103478.19;4922392;28;20031;-73
2022/02/27 02:46:37;;;;;;;24.98;3.65;;;-1.70;99.90;;;-3.41;100.00;103475.59;4912697;28;20035;-74
2022/02/27 02:49:05;;;;;;;15.48;4.68;;;-1.70;99.90;;;-3.43;100.00;103474.66;4911459;28;20047;-73
2022/02/27 02:51:31;;;;;;;21.85;4.32;;;-1.70;99.90;;;-3.47;100.00;103471.03;4927565;28;20036;-74
2022/02/27 02:53:58;;;;;;;23.63;3.92;;;-1.70;99.90;;;-3.49;100.00;103477.78;4916310;28;20107;-74
2022/02/27 02:56:24;;;;;;;20.65;4.00;;;-1.70;99.90;;;-3.49;100.00;103487.19;4896847;28;20032;-73
2022/02/27 02:58:50;;;;;;;19.27;4.15;;;-1.70;99.90;;;-3.52;100.00;103481.06;4928424;28;20115;-74
2022/02/27 03:01:19;;;;;;;18.80;4.05;;;-1.70;99.90;;;-3.55;100.00;103485.16;4913392;28;20032;-73
2022/02/27 03:03:47;;;;;;;26.05;5.10;;;-1.70;99.90;;;-3.55;100.00;103486.03;4912771;28;20028;-73
2022/02/27 03:06:13;;;;;;;17.33;4.10;;;-1.80;99.90;;;-3.55;100.00;103488.63;4928833;28;20030;-74
2022/02/27 03:08:42;;;;;;;21.83;4.20;;;-1.80;99.90;;;-3.55;100.00;103496.34;4913154;28;20489;-74
2022/02/27 03:11:08;;;;;;;20.85;3.92;;;-1.80;99.90;;;-3.58;100.00;103497.88;4913562;28;20046;-74
2022/02/27 03:13:35;;;;;;;19.17;3.25;;;-1.80;99.90;;;-3.64;100.00;103497.53;4912621;28;20962;-74
2022/02/27 03:16:02;;;;;;;10.25;3.08;;;-1.80;99.90;;;-3.66;100.00;103493.97;4911874;28;20138;-73
2022/02/27 03:18:27;;;;;;;19.48;3.45;;;-1.90;99.90;;;-3.71;100.00;103494.59;4914117;28;20032;-74
2022/02/27 03:20:53;;;;;;;22.30;3.45;;;-1.90;99.90;;;-3.69;100.00;103494.69;4913216;28;20184;-73
2022/02/27 03:23:19;;;;;;;22.92;3.80;;;-1.90;99.90;;;-3.65;100.00;103506.03;4928468;28;20461;-73
2022/02/27 03:25:46;;;;;;;16.60;3.60;;;-1.90;99.90;;;-3.61;100.00;103497.69;4927999;28;20062;-73
2022/02/27 03:28:11;;;;;;;18.33;3.92;;;-1.80;99.90;;;-3.60;100.00;103505.50;4913821;28;20500;-74
2022/02/27 03:30:38;;;;;;;16.15;3.88;;;-1.80;99.90;;;-3.59;100.00;103502.13;4911704;28;20038;-73
2022/02/27 03:33:05;;;;;;;12.75;3.63;;;-1.80;99.90;;;-3.54;100.00;103502.41;4911289;28;20059;-73
2022/02/27 03:35:31;;;;;;;21.58;3.75;;;-1.80;99.90;;;-3.49;100.00;103502.66;4928503;28;20086;-74
2022/02/27 03:37:57;;;;;;;17.92;3.67;;;-1.70;99.90;;;-3.51;100.00;103506.00;4944525;28;20392;-73
2022/02/27 03:40:24;;;;;;;18.23;3.33;;;-1.80;99.90;;;-3.55;100.00;103504.06;4915080;28;24867;-74
2022/02/27 03:42:50;;;;;;;20.98;3.85;;;-1.80;99.90;;;-3.53;100.00;103507.63;4930349;28;20062;-74
2022/02/27 03:45:17;;;;;;;16.55;3.85;;;-1.80;99.90;;;-3.52;100.00;103500.78;4931899;28;20110;-73
2022/02/27 03:47:43;;;;;;;24.30;4.20;;;-1.70;99.90;;;-3.48;100.00;103512.16;4933184;28;20539;-74
2022/02/27 03:50:12;;;;;;;20.27;4.63;;;-1.70;99.90;;;-3.47;100.00;103506.22;4930846;28;20197;-73
2022/02/27 03:52:38;;;;;;;22.73;4.70;;;-1.70;99.90;;;-3.41;100.00;103516.81;4932620;28;20392;-74
2022/02/27 03:55:14;;;;;;;20.38;4.07;;;-1.70;99.90;;;-3.41;100.00;103517.75;4934081;28;20028;-73
2022/02/27 03:57:41;;;;;;;15.10;4.13;;;-1.70;99.90;;;-3.42;100.00;103518.53;4907725;28;20031;-73
2022/02/27 04:00:14;;;;;;;25.88;4.60;;;-1.70;99.90;;;-3.44;100.00;103507.25;4928935;28;20041;-73
2022/02/27 04:02:45;;;;;;;24.38;4.00;;;-1.70;99.90;;;-3.40;100.00;103508.31;4930442;28;20035;-73
2022/02/27 04:05:16;;;;;;;15.57;3.50;;;-1.70;99.90;;;-3.38;100.00;103499.84;4930502;28;20031;-74
2022/02/27 04:07:43;;;;;;;19.65;4.15;;;-1.70;99.90;;;-3.40;100.00;103506.63;4929601;28;20035;-74
2022/02/27 04:10:11;;;;;;;17.40;4.22;;;-1.70;99.90;;;-3.43;100.00;103503.00;4931577;28;20054;-73
2022/02/27 04:12:37;;;;;;;27.50;4.38;;;-1.70;99.90;;;-3.45;100.00;103509.75;4930267;28;20031;-74
2022/02/27 04:15:05;;;;;;;20.02;4.43;;;-1.70;99.90;;;-3.47;100.00;103503.63;4931834;28;20020;-74
2022/02/27 04:17:31;;;;;;;21.63;4.10;;;-1.70;99.90;;;-3.45;100.00;103505.47;4910643;28;20110;-74
2022/02/27 04:19:58;;;;;;;13.18;3.78;;;-1.70;99.90;;;-3.47;100.00;103504.50;4903061;28;20516;-73
2022/02/27 04:22:27;;;;;;;12.38;3.45;;;-1.70;99.90;;;-3.48;100.00;103513.03;4911012;28;20039;-73
2022/02/27 04:24:53;;;;;;;25.17;4.53;;;-1.70;99.90;;;-3.54;100.00;103505.84;4913381;28;20161;-74
2022/02/27 04:27:19;;;;;;;16.83;3.50;;;-1.70;99.90;;;-3.56;100.00;103501.44;4912295;28;20044;-74
2022/02/27 04:29:45;;;;;;;8.57;2.95;;;-1.80;99.90;;;-3.58;100.00;103506.50;4912561;28;20032;-73
2022/02/27 04:32:12;;;;;;;22.25;3.63;;;-1.80;99.90;;;-3.59;100.00;103501.25;4910371;28;20493;-73
2022/02/27 04:34:37;;;;;;;16.05;3.30;;;-1.80;99.90;;;-3.63;100.00;103515.63;4911193;28;20044;-73
2022/02/27 04:37:04;;;;;;;18.27;4.13;;;-1.90;99.90;;;-3.63;100.00;103507.00;4911442;28;20035;-73
2022/02/27 04:39:30;;;;;;;17.48;3.40;;;-1.80;99.90;;;-3.59;100.00;103509.84;4903148;28;20035;-74
2022/02/27 04:41:56;;;;;;;26.08;4.38;;;-1.90;99.90;;;-3.62;100.00;103512.25;4947006;28;20086;-74
2022/02/27 04:44:22;;;;;;;19.25;3.90;;;-1.80;99.90;;;-3.59;100.00;103509.84;4921861;28;20031;-73
2022/02/27 04:46:48;;;;;;;25.55;4.47;;;-1.80;99.90;;;-3.57;100.00;103518.53;4930561;28;20114;-74
2022/02/27 04:49:14;;;;;;;27.08;6.70;;;-1.80;99.90;;;-3.57;100.00;103515.97;4929882;28;20090;-73
2022/02/27 04:51:40;;;;;;;20.40;5.55;;;-1.80;99.90;;;-3.58;100.00;103516.78;4933567;28;20035;-74
2022/02/27 04:54:06;;;;;;;26.40;4.82;;;-1.80;99.90;;;-3.64;100.00;103512.97;4930019;28;20031;-73
2022/02/27 04:56:32;;;;;;;26.42;5.03;;;-1.80;99.90;;;-3.62;100.00;103512.25;4931775;28;20031;-73
2022/02/27 04:58:58;;;;;;;19.58;4.53;;;-1.80;99.90;;;-3.57;100.00;103512.50;4933356;28;20031;-74
2022/02/27 05:01:24;;;;;;;25.95;5.85;;;-1.70;99.90;;;-3.54;100.00;103521.31;4913341;28;20369;-74
2022/02/27 05:03:50;;;;;;;34.55;9.80;;;-1.80;99.90;;;-3.53;100.00;103522.19;4927228;28;20020;-73
2022/02/27 05:06:16;;;;;;;29.02;6.22;;;-1.70;99.90;;;-3.49;100.00;103524.16;4911615;28;20062;-73
2022/02/27 05:08:42;;;;;;;23.25;6.72;;;-1.70;99.90;;;-3.48;100.00;103525.03;4910807;28;20095;-73
2022/02/27 05:11:08;;;;;;;44.33;6.35;;;-1.70;99.90;;;-3.47;100.00;103519.97;4911044;28;20020;-74
2022/02/27 05:13:33;;;;;;;13.95;3.67;;;-1.70;99.90;;;-3.53;100.00;103523.06;4913904;28;20047;-73
2022/02/27 05:16:00;;;;;;;306.30;6.15;;;-1.80;99.90;;;-3.63;100.00;103522.47;4913191;28;20039;-74
2022/02/27 05:18:26;;;;;;;11.63;3.63;;;-1.90;99.90;;;-3.73;100.00;103529.69;4911240;28;20110;-73
2022/02/27 05:20:51;;;;;;;23.70;4.60;;;-2.00;99.90;;;-3.80;100.00;103524.06;4916842;28;20535;-74
2022/02/27 05:23:18;;;;;;;29.17;4.43;;;-2.00;99.90;;;-3.81;100.00;103533.50;4899864;28;20020;-73
2022/02/27 05:25:44;;;;;;;24.35;3.88;;;-2.00;99.90;;;-3.79;100.00;103531.91;4914364;28;20032;-74
2022/02/27 05:28:09;;;;;;;20.25;3.58;;;-2.00;99.90;;;-3.71;100.00;103535.81;4913636;28;20040;-74
2022/02/27 05:30:35;;;;;;;26.15;4.60;;;-1.90;99.90;;;-3.57;100.00;103531.44;4915821;28;21883;-74
2022/02/27 05:33:01;;;;;;;17.40;3.97;;;-1.80;99.90;;;-3.40;100.00;103546.97;4913642;28;20165;-73
2022/02/27 05:35:27;;;;;;;20.52;4.13;;;-1.60;99.90;;;-3.24;100.00;103540.97;4914115;28;20024;-73
2022/02/27 05:37:54;;;;;;;21.17;4.47;;;-1.50;99.90;;;-3.07;100.00;103545.34;4917062;28;20040;-74
2022/02/27 05:40:19;;;;;;;15.73;4.88;;;-1.30;99.90;;;-2.90;100.00;103548.84;4933167;28;20756;-74
2022/02/27 05:42:45;;;;;;;30.75;5.32;;;-1.20;99.90;;;-2.77;100.00;103550.41;4933059;28;20030;-73
2022/02/27 05:45:11;;;;;;;29.35;4.70;;;-1.10;99.90;;;-2.65;100.00;103547.59;4936565;28;20536;-73
2022/02/27 05:47:38;;;;;;;16.88;4.97;;;-1.00;99.90;;;-2.56;100.00;103551.53;4931783;28;20555;-74
2022/02/27 05:50:05;;;;;;;24.90;5.00;;;-0.90;99.90;;;-2.47;100.00;103546.84;4932754;28;20046;-73
2022/02/27 05:52:31;;;;;;;25.80;4.63;;;-0.80;99.90;;;-2.36;100.00;103551.69;4932206;28;20031;-74
2022/02/27 05:54:57;;;;;;;21.60;5.47;;;-0.70;99.90;;;-2.27;100.00;103547.00;4935969;28;20046;-74
2022/02/27 05:57:23;;;;;;;20.05;5.32;;;-0.60;99.90;;;-2.20;100.00;103551.69;4935492;28;20579;-73
2022/02/27 05:59:49;;;;;;;26.85;4.95;;;-0.50;99.90;;;-2.14;100.00;103549.44;4932720;28;20020;-74
2022/02/27 06:02:15;;;;;;;16.75;4.43;;;-0.50;99.90;;;-2.12;100.00;103549.47;4935537;28;20050;-74
2022/02/27 06:04:41;;;;;;;21.83;4.65;;;-0.50;99.90;;;-2.12;100.00;103554.66;4935226;28;20023;-74
2022/02/27 06:07:07;;;;;;;30.35;5.00;;;-0.50;99.90;;;-2.17;100.00;103553.53;4932685;28;20480;-74
2022/02/27 06:09:33;;;;;;;27.67;4.75;;;-0.50;99.90;;;-2.23;100.00;103555.78;4935652;28;20050;-73
2022/02/27 06:11:59;;;;;;;21.10;4.43;;;-0.50;99.90;;;-2.22;100.00;103561.03;4914594;28;20028;-73
2022/02/27 06:14:25;;;;;;;37.25;4.82;;;-0.50;99.90;;;-2.25;100.00;103553.13;4915705;28;20023;-73
2022/02/27 06:16:52;;;;;;;27.40;5.57;;;-0.50;99.90;;;-2.17;100.00;103557.00;4911629;28;20080;-74
2022/02/27 06:19:17;;;;;;;36.22;7.10;;;-0.50;99.90;;;-2.10;100.00;103553.91;4914893;28;20036;-73
2022/02/27 06:21:43;;;;;;;34.83;5.90;;;-0.40;99.90;;;-1.99;100.00;103549.28;4915537;28;20083;-73
2022/02/27 06:24:10;;;;;;;34.10;7.63;;;-0.30;99.90;;;-1.93;100.00;103552.19;4939631;28;20035;-74
2022/02/27 06:26:36;;;;;;;37.55;7.70;;;-0.30;99.90;;;-1.85;100.00;103550.00;4932482;28;20130;-73
2022/02/27 06:29:03;;;;;;;38.60;7.60;;;-0.20;99.90;;;-1.73;100.00;103554.88;4932823;28;20519;-73
2022/02/27 06:31:32;;;;;;;40.30;7.95;;;-0.10;99.90;;;-1.61;100.00;103555.47;4933437;28;20035;-73
2022/02/27 06:33:58;;;;;;;39.17;9.23;;;0.00;99.90;;;-1.49;100.00;103561.25;4934243;28;20194;-73
2022/02/27 06:36:24;;;;;;;60.97;10.60;;;0.10;99.90;;;-1.42;100.00;103556.41;4914700;28;20019;-74
2022/02/27 06:38:49;;;;;;;69.57;13.30;;;0.20;99.90;;;-1.31;100.00;103558.66;4933146;28;20705;-73
2022/02/27 06:41:16;;;;;;;59.92;14.32;;;0.40;99.90;;;-1.14;100.00;103550.84;4931352;28;20031;-73
2022/02/27 06:43:43;;;;;;;39.17;8.95;;;0.50;99.90;;;-1.06;100.00;103554.63;4933307;28;20019;-73
2022/02/27 06:46:09;;;;;;;85.50;19.70;;;0.60;99.90;;;-0.84;100.00;103554.84;4933844;28;20113;-73
2022/02/27 06:48:35;;;;;;;130.15;16.65;;;0.80;99.90;;;-0.74;100.00;103555.25;4931896;28;20059;-74
2022/02/27 06:51:01;;;;;;;91.05;18.58;;;0.90;99.90;;;-0.65;100.00;103561.75;4933265;28;20096;-73
2022/02/27 06:53:27;;;;;;;83.15;16.55;;;0.90;99.90;;;-0.54;100.00;103561.31;4912664;28;20160;-73
2022/02/27 06:55:54;;;;;;;154.98;27.75;;;1.00;99.90;;;-0.38;100.00;103565.50;4931100;28;20475;-73
2022/02/27 06:58:20;;;;;;;144.20;20.80;;;1.10;99.90;;;-0.39;100.00;103558.53;4934479;28;20052;-73
2022/02/27 07:00:46;;;;;;;142.65;20.05;;;1.20;99.90;;;-0.31;100.00;103563.22;4930231;28;20031;-75
2022/02/27 07:03:13;;;;;;;99.97;15.52;;;1.20;99.90;;;-0.40;100.00;103567.13;4933316;28;20027;-73
2022/02/27 07:05:39;;;;;;;161.90;18.17;;;1.30;99.90;;;-0.22;100.00;103562.72;4915354;28;20087;-74
2022/02/27 07:08:06;;;;;;;140.38;19.70;;;1.40;99.90;;;0.00;100.00;103564.56;4932272;28;20047;-73
2022/02/27 07:10:32;;;;;;;147.98;19.77;;;1.50;99.90;;;0.19;100.00;103558.44;4931436;28;20039;-73
2022/02/27 07:12:58;;;;;;;166.13;19.05;;;1.60;99.90;;;0.43;100.00;103562.84;4930239;28;20369;-73
2022/02/27 07:15:24;;;;;;;158.38;18.30;;;1.70;99.90;;;0.25;100.00;103563.00;4932587;28;20038;-72
2022/02/27 07:17:50;;;;;;;187.25;19.70;;;1.70;99.90;;;0.45;100.00;103569.88;4915383;28;20035;-73
2022/02/27 07:20:16;;;;;;;193.80;20.55;;;1.80;99.90;;;0.63;100.00;103574.03;4933097;28;20552;-74
2022/02/27 07:22:42;;;;;;;224.80;22.35;;;1.90;99.90;;;0.90;100.00;103571.66;4932243;28;20035;-73
2022/02/27 07:25:09;;;;;;;169.93;18.65;;;2.10;99.90;;;1.00;100.00;103577.25;4930474;28;20043;-74
2022/02/27 07:27:36;;;;;;;101.72;13.57;;;2.10;99.90;;;0.74;100.00;103583.16;4930465;28;20035;-73
2022/02/27 07:30:04;;;;;;;204.50;17.35;;;2.20;99.90;;;1.16;100.00;103583.03;4928925;28;20054;-73
2022/02/27 07:32:31;;;;;;;182.50;16.35;;;2.20;99.90;;;0.91;100.00;103579.50;4932056;28;20086;-73
2022/02/27 07:34:58;;;;;;;177.48;15.73;;;2.20;99.90;;;1.12;100.00;103581.16;4929980;28;20085;-73
2022/02/27 07:37:25;;;;;;;258.05;19.38;;;2.30;99.90;;;1.23;100.00;103585.94;4929814;28;20031;-73
2022/02/27 07:39:51;;;;;;;231.25;18.17;;;2.40;99.90;;;1.73;100.00;103586.03;4934501;28;20031;-74
2022/02/27 07:42:17;;;;;;;216.02;17.27;;;2.60;99.90;;;1.84;100.00;103582.09;4928642;28;20027;-73
2022/02/27 07:44:43;;;;;;;319.90;23.08;;;2.80;99.90;;;2.13;100.00;103582.22;4929794;28;20106;-75
2022/02/27 07:47:09;;;;;;;238.90;18.80;;;2.90;99.90;;;2.25;100.00;103590.44;4916274;28;20447;-74
2022/02/27 07:49:35;;;;;;;313.58;26.08;;;3.10;99.90;;;2.76;100.00;103584.25;4932882;28;20055;-73
2022/02/27 07:52:01;;;;;;;245.60;24.98;;;3.40;99.90;;;3.24;100.00;103588.31;4930162;28;20039;-75
2022/02/27 07:54:27;;;;;;;157.35;25.52;;;3.80;99.90;;;5.37;100.00;103574.53;4933018;28;20039;-74
2022/02/27 07:56:53;;;;;;;90.40;20.77;;;4.60;99.90;;;7.11;93.09;103574.94;4912327;28;20028;-74
2022/02/27 07:59:19;;;;;;;68.68;17.23;;;5.70;99.90;;;8.11;84.30;103578.66;4909638;28;20393;-73
2022/02/27 08:01:45;;;;;;;60.40;15.75;;;6.90;99.90;;;10.24;77.87;103571.84;4914781;28;20032;-74
2022/02/27 08:04:11;;;;;;;46.63;13.25;;;8.20;99.90;;;10.93;71.46;103472.47;4910447;28;21613;-74
2022/02/27 08:06:37;;;;;;;41.95;10.98;;;9.40;99.90;;;11.92;67.71;103505.31;4911205;28;20055;-74
2022/02/27 08:09:05;;;;;;;34.45;9.45;;;10.30;99.90;;;12.40;64.34;103589.47;4911047;28;20048;-74
2022/02/27 08:11:32;;;;;;;35.55;9.63;;;10.50;99.90;;;11.23;63.13;103720.28;4912576;28;20040;-73
2022/02/27 08:13:59;;;;;;;30.17;9.23;;;10.90;99.90;;;11.92;62.35;103605.66;4895651;28;20509;-74
2022/02/27 08:16:25;;;;;;;35.00;9.43;;;11.40;99.90;;;12.26;61.12;103655.63;4910510;28;20166;-74
2022/02/27 08:18:51;;;;;;;29.02;8.98;;;11.70;99.90;;;12.19;61.88;103664.47;4913201;28;20062;-75
2022/02/27 08:21:17;;;;;;;31.02;9.98;;;12.10;99.90;;;12.87;59.89;103609.25;4910206;28;20039;-73
2022/02/27 08:23:46;;;;;;;38.25;10.13;;;12.40;99.90;;;12.90;58.85;103617.19;4910888;28;20058;-74
2022/02/27 08:26:12;;;;;;;41.17;10.95;;;12.40;99.90;;;12.09;59.52;103616.09;4911605;28;20091;-72
2022/02/27 08:28:38;;;;;;;31.40;10.95;;;12.50;99.90;;;12.18;59.26;103624.00;4910918;28;20044;-72
2022/02/27 08:31:04;;;;;;;35.90;10.98;;;12.40;99.90;;;11.39;58.97;103641.09;4887315;28;20055;-71
2022/02/27 08:33:30;;;;;;;40.88;11.07;;;12.50;99.90;;;11.64;59.65;103653.31;4902572;28;20039;-72
2022/02/27 08:35:56;;;;;;;37.97;11.60;;;12.60;99.90;;;12.15;58.92;103668.03;4911263;28;20063;-72
2022/02/27 08:38:24;;;;;;;36.75;10.70;;;12.40;99.90;;;11.05;59.53;103683.38;4924104;28;20514;-72
2022/02/27 08:40:51;;;;;;;37.22;11.07;;;11.80;99.90;;;10.43;61.92;103682.47;4929624;28;20069;-72
2022/02/27 08:43:17;;;;;;;38.50;11.73;;;12.00;99.90;;;11.23;62.21;103672.78;4930258;28;20044;-72
2022/02/27 08:45:44;;;;;;;26.30;9.32;;;12.00;99.90;;;10.00;60.07;103678.00;4933578;28;20040;-72
2022/02/27 08:48:10;;;;;;;32.13;11.00;;;11.60;99.90;;;9.71;62.82;103674.38;4921706;28;20091;-72
2022/02/27 08:50:35;;;;;;;33.92;10.70;;;11.60;99.90;;;10.60;63.63;103672.81;4911044;28;20130;-72
2022/02/27 08:53:01;;;;;;;36.35;11.23;;;11.60;99.90;;;10.83;62.49;103672.84;4947228;28;20110;-72
2022/02/27 08:55:29;;;;;;;28.08;9.75;;;12.00;99.90;;;11.45;61.50;103663.03;4934900;28;20038;-72
2022/02/27 08:57:56;;;;;;;32.53;9.95;;;12.40;99.90;;;11.34;60.48;103675.41;4931861;28;20039;-72
2022/02/27 09:00:22;;;;;;;29.77;9.13;;;12.40;99.90;;;10.48;60.89;103679.88;4937152;28;20028;-72
2022/02/27 09:02:48;;;;;;;38.50;11.85;;;11.50;99.90;;;9.60;63.89;103676.97;4933419;28;20074;-72
2022/02/27 09:05:14;;;;;;;31.80;10.57;;;11.60;99.90;;;10.15;64.06;103684.16;4932900;28;20034;-72
2022/02/27 09:07:41;;;;;;;33.15;10.00;;;11.60;99.90;;;10.36;63.55;103660.53;4934134;28;20087;-72
2022/02/27 09:10:12;;;;;;;30.65;9.63;;;11.50;99.90;;;9.87;63.79;103676.19;4933570;28;20037;-72
2022/02/27 09:12:43;;;;;;;32.35;10.68;;;11.30;99.90;;;9.73;64.81;103689.28;4933210;28;20035;-72
2022/02/27 09:15:11;;;;;;;22.05;8.65;;;11.20;99.90;;;10.08;64.66;103691.16;4912470;28;20031;-72
2022/02/27 09:17:40;;;;;;;31.85;10.13;;;10.90;99.90;;;9.61;65.04;103690.13;4917502;28;20867;-72
2022/02/27 09:20:08;;;;;;;26.55;9.57;;;10.90;99.90;;;9.48;65.55;103684.78;4913887;28;20050;-72
2022/02/27 09:22:39;;;;;;;26.05;8.77;;;10.80;99.90;;;9.45;65.00;103677.75;4913491;28;20088;-72
2022/02/27 09:25:06;;;;;;;28.00;7.95;;;10.40;99.90;;;9.04;66.16;103684.50;4908003;28;20039;-72
2022/02/27 09:27:32;;;;;;;30.85;8.63;;;10.40;99.90;;;9.17;67.15;103697.75;4933829;28;20050;-72
2022/02/27 09:30:05;;;;;;;23.40;8.18;;;9.90;99.90;;;8.29;66.85;103690.84;4933191;28;20036;-72
2022/02/27 09:32:31;;;;;;;28.33;9.30;;;9.20;99.90;;;7.56;69.67;103695.25;4932619;28;20045;-72
2022/02/27 09:34:57;;;;;;;25.60;7.85;;;9.10;99.90;;;7.52;70.23;103697.81;4933908;28;20019;-72
2022/02/27 09:37:26;;;;;;;24.75;8.00;;;8.80;99.90;;;7.94;70.98;103691.31;4919510;28;20023;-72
2022/02/27 09:39:53;;;;;;;22.88;7.82;;;8.60;99.90;;;7.72;70.73;103696.31;4948226;28;20067;-72
2022/02/27 09:42:20;;;;;;;25.00;7.72;;;8.50;99.90;;;7.55;72.09;103688.22;4915246;28;20126;-72
2022/02/27 09:44:52;;;;;;;25.92;8.20;;;8.30;99.90;;;7.18;73.15;103703.41;4933805;28;20039;-71
2022/02/27 09:47:21;;;;;;;23.48;8.65;;;8.00;99.90;;;6.70;74.92;103703.53;4931743;28;20031;-72
2022/02/27 09:49:47;;;;;;;20.05;7.25;;;7.70;99.90;;;6.00;76.09;103692.63;4904417;28;20039;-74
2022/02/27 09:52:18;;;;;;;24.10;7.18;;;7.50;99.90;;;5.88;78.51;103686.25;4928603;28;20087;-72
2022/02/27 09:54:51;;;;;;;21.10;6.28;;;7.10;99.90;;;5.37;79.85;103694.75;4930129;28;20090;-73
2022/02/27 09:57:20;;;;;;;20.52;6.68;;;7.00;99.90;;;5.18;81.08;103688.22;4931915;28;20126;-72